sensor_id;sensor_type;location;lat;lon;timestamp;temperature;humidity
12408;DHT22;6268;48.188;17.134;2023-10-19T00:01:18;10.00;99.90
12408;DHT22;6268;48.188;17.134;2023-10-19T00:03:45;10.00;99.90
12408;DHT22;6268;48.188;17.134;2023-10-19T00:06:17;10.00;99.90
12408;DHT22;6268;48.188;17.134;2023-10-19T00:08:46;8.10;99.90
12408;DHT22;6268;48.188;17.134;2023-10-19T00:11:14;11.20;99.90
12408;DHT22;6268;48.188;17.134;2023-10-19T00:13:48;10.00;99.90
12408;DHT22;6268;48.188;17.134;2023-10-19T00:16:19;10.00;99.90
12408;DHT22;6268;48.188;17.134;2023-10-19T00:18:49;10.00;99.90
12408;DHT22;6268;48.188;17.134;2023-10-19T00:21:19;10.00;99.90
12408;DHT22;6268;48.188;17.134;2023-10-19T00:23:47;10.00;99.90
12408;DHT22;6268;48.188;17.134;2023-10-19T00:26:23;10.00;99.90
12408;DHT22;6268;48.188;17.134;2023-10-19T00:28:52;9.80;99.90
12408;DHT22;6268;48.188;17.134;2023-10-19T00:31:26;11.10;99.90
12408;DHT22;6268;48.188;17.134;2023-10-19T00:33:55;10.00;99.90
12408;DHT22;6268;48.188;17.134;2023-10-19T00:36:24;10.00;99.90
12408;DHT22;6268;48.188;17.134;2023-10-19T00:38:53;10.10;99.90
12408;DHT22;6268;48.188;17.134;2023-10-19T00:41:24;10.00;99.90
12408;DHT22;6268;48.188;17.134;2023-10-19T00:43:57;10.00;99.90
12408;DHT22;6268;48.188;17.134;2023-10-19T00:46:32;10.10;99.90
12408;DHT22;6268;48.188;17.134;2023-10-19T00:49:05;10.10;99.90
12408;DHT22;6268;48.188;17.134;2023-10-19T00:51:36;10.10;99.90
12408;DHT22;6268;48.188;17.134;2023-10-19T00:54:29;10.10;99.90
12408;DHT22;6268;48.188;17.134;2023-10-19T00:57:01;10.10;99.90
12408;DHT22;6268;48.188;17.134;2023-10-19T00:59:34;10.10;99.90
12408;DHT22;6268;48.188;17.134;2023-10-19T01:02:11;10.10;99.90
12408;DHT22;6268;48.188;17.134;2023-10-19T01:04:48;9.10;99.90
12408;DHT22;6268;48.188;17.134;2023-10-19T01:07:23;10.10;99.90
12408;DHT22;6268;48.188;17.134;2023-10-19T01:09:57;10.60;99.90
12408;DHT22;6268;48.188;17.134;2023-10-19T01:12:27;10.10;99.90
12408;DHT22;6268;48.188;17.134;2023-10-19T01:15:05;10.10;99.90
12408;DHT22;6268;48.188;17.134;2023-10-19T01:17:37;10.10;99.90
12408;DHT22;6268;48.188;17.134;2023-10-19T01:20:12;10.10;99.90
12408;DHT22;6268;48.188;17.134;2023-10-19T01:22:53;10.10;99.90
12408;DHT22;6268;48.188;17.134;2023-10-19T01:25:41;10.00;99.90
12408;DHT22;6268;48.188;17.134;2023-10-19T01:28:13;10.70;99.90
12408;DHT22;6268;48.188;17.134;2023-10-19T01:33:19;8.70;99.90
12408;DHT22;6268;48.188;17.134;2023-10-19T01:35:48;13.30;99.90
12408;DHT22;6268;48.188;17.134;2023-10-19T01:38:36;11.40;99.90
12408;DHT22;6268;48.188;17.134;2023-10-19T01:41:06;10.60;99.90
12408;DHT22;6268;48.188;17.134;2023-10-19T01:43:41;10.20;99.90
12408;DHT22;6268;48.188;17.134;2023-10-19T01:46:11;11.40;99.90
12408;DHT22;6268;48.188;17.134;2023-10-19T01:48:40;9.80;99.90
12408;DHT22;6268;48.188;17.134;2023-10-19T01:51:11;11.60;99.90
12408;DHT22;6268;48.188;17.134;2023-10-19T01:53:41;10.70;99.90
12408;DHT22;6268;48.188;17.134;2023-10-19T01:56:12;10.70;99.90
12408;DHT22;6268;48.188;17.134;2023-10-19T01:58:41;10.20;99.90
12408;DHT22;6268;48.188;17.134;2023-10-19T02:01:10;11.10;99.90
12408;DHT22;6268;48.188;17.134;2023-10-19T02:03:42;10.90;99.90
12408;DHT22;6268;48.188;17.134;2023-10-19T02:06:12;10.70;99.90
12408;DHT22;6268;48.188;17.134;2023-10-19T02:08:50;10.10;99.90
12408;DHT22;6268;48.188;17.134;2023-10-19T02:13:53;10.10;99.90
12408;DHT22;6268;48.188;17.134;2023-10-19T02:16:22;8.70;99.90
12408;DHT22;6268;48.188;17.134;2023-10-19T02:18:50;10.20;99.90
12408;DHT22;6268;48.188;17.134;2023-10-19T02:28:50;9.80;99.90
12408;DHT22;6268;48.188;17.134;2023-10-19T02:31:19;11.70;99.90
12408;DHT22;6268;48.188;17.134;2023-10-19T02:33:49;10.20;99.90
12408;DHT22;6268;48.188;17.134;2023-10-19T02:36:25;10.20;99.90
12408;DHT22;6268;48.188;17.134;2023-10-19T02:38:58;10.20;99.90
12408;DHT22;6268;48.188;17.134;2023-10-19T02:41:27;10.20;99.90
12408;DHT22;6268;48.188;17.134;2023-10-19T02:43:56;10.60;99.90
12408;DHT22;6268;48.188;17.134;2023-10-19T02:46:32;10.20;99.90
12408;DHT22;6268;48.188;17.134;2023-10-19T02:49:01;10.30;99.90
12408;DHT22;6268;48.188;17.134;2023-10-19T02:51:30;10.20;99.90
12408;DHT22;6268;48.188;17.134;2023-10-19T02:54:00;10.30;99.90
12408;DHT22;6268;48.188;17.134;2023-10-19T02:56:29;10.30;99.90
12408;DHT22;6268;48.188;17.134;2023-10-19T02:58:58;12.60;99.90
12408;DHT22;6268;48.188;17.134;2023-10-19T03:01:31;12.80;99.90
12408;DHT22;6268;48.188;17.134;2023-10-19T03:04:02;10.20;99.90
12408;DHT22;6268;48.188;17.134;2023-10-19T03:06:31;10.30;99.90
12408;DHT22;6268;48.188;17.134;2023-10-19T03:09:04;10.30;99.90
12408;DHT22;6268;48.188;17.134;2023-10-19T03:11:40;10.30;99.90
12408;DHT22;6268;48.188;17.134;2023-10-19T03:14:09;11.60;99.90
12408;DHT22;6268;48.188;17.134;2023-10-19T03:16:38;10.30;99.90
12408;DHT22;6268;48.188;17.134;2023-10-19T03:19:09;10.40;99.90
12408;DHT22;6268;48.188;17.134;2023-10-19T03:21:36;10.30;99.90
12408;DHT22;6268;48.188;17.134;2023-10-19T03:24:12;13.60;99.90
12408;DHT22;6268;48.188;17.134;2023-10-19T03:26:40;9.10;99.90
12408;DHT22;6268;48.188;17.134;2023-10-19T03:29:15;10.40;99.90
12408;DHT22;6268;48.188;17.134;2023-10-19T03:31:49;9.90;99.90
12408;DHT22;6268;48.188;17.134;2023-10-19T03:34:17;10.40;99.90
12408;DHT22;6268;48.188;17.134;2023-10-19T03:36:46;10.40;99.90
12408;DHT22;6268;48.188;17.134;2023-10-19T03:39:16;10.40;99.90
12408;DHT22;6268;48.188;17.134;2023-10-19T03:41:45;10.40;99.90
12408;DHT22;6268;48.188;17.134;2023-10-19T03:44:13;10.40;99.90
12408;DHT22;6268;48.188;17.134;2023-10-19T03:46:47;10.40;99.90
12408;DHT22;6268;48.188;17.134;2023-10-19T03:49:24;10.40;99.90
12408;DHT22;6268;48.188;17.134;2023-10-19T03:51:57;10.40;99.90
12408;DHT22;6268;48.188;17.134;2023-10-19T03:54:29;10.40;99.90
12408;DHT22;6268;48.188;17.134;2023-10-19T03:57:00;10.20;99.90
12408;DHT22;6268;48.188;17.134;2023-10-19T03:59:33;9.50;99.90
12408;DHT22;6268;48.188;17.134;2023-10-19T04:02:02;10.50;99.90
12408;DHT22;6268;48.188;17.134;2023-10-19T04:04:36;10.70;99.90
12408;DHT22;6268;48.188;17.134;2023-10-19T04:07:06;10.40;99.90
12408;DHT22;6268;48.188;17.134;2023-10-19T04:09:45;12.30;99.90
12408;DHT22;6268;48.188;17.134;2023-10-19T04:12:27;10.40;99.90
12408;DHT22;6268;48.188;17.134;2023-10-19T04:14:59;10.40;99.90
12408;DHT22;6268;48.188;17.134;2023-10-19T04:17:36;10.20;99.90
12408;DHT22;6268;48.188;17.134;2023-10-19T04:20:07;10.40;99.90
12408;DHT22;6268;48.188;17.134;2023-10-19T04:22:53;9.00;99.90
12408;DHT22;6268;48.188;17.134;2023-10-19T04:25:23;10.90;99.90
12408;DHT22;6268;48.188;17.134;2023-10-19T04:27:54;11.20;99.90
12408;DHT22;6268;48.188;17.134;2023-10-19T04:30:24;10.50;99.90
12408;DHT22;6268;48.188;17.134;2023-10-19T04:32:53;10.40;99.90
12408;DHT22;6268;48.188;17.134;2023-10-19T04:35:25;9.00;99.90
12408;DHT22;6268;48.188;17.134;2023-10-19T04:37:57;10.30;99.90
12408;DHT22;6268;48.188;17.134;2023-10-19T04:40:28;10.30;99.90
12408;DHT22;6268;48.188;17.134;2023-10-19T04:42:57;10.20;99.90
12408;DHT22;6268;48.188;17.134;2023-10-19T04:45:26;10.20;99.90
12408;DHT22;6268;48.188;17.134;2023-10-19T04:47:56;10.20;99.90
12408;DHT22;6268;48.188;17.134;2023-10-19T04:50:25;10.90;99.90
12408;DHT22;6268;48.188;17.134;2023-10-19T04:55:22;9.80;99.90
12408;DHT22;6268;48.188;17.134;2023-10-19T04:57:53;11.50;99.90
12408;DHT22;6268;48.188;17.134;2023-10-19T05:00:22;10.30;99.90
12408;DHT22;6268;48.188;17.134;2023-10-19T05:02:51;10.30;99.90
12408;DHT22;6268;48.188;17.134;2023-10-19T05:05:20;10.30;99.90
12408;DHT22;6268;48.188;17.134;2023-10-19T05:07:49;10.10;99.90
12408;DHT22;6268;48.188;17.134;2023-10-19T05:10:17;10.30;99.90
12408;DHT22;6268;48.188;17.134;2023-10-19T05:12:47;10.00;99.90
12408;DHT22;6268;48.188;17.134;2023-10-19T05:15:16;10.90;99.90
12408;DHT22;6268;48.188;17.134;2023-10-19T05:17:45;9.80;99.90
12408;DHT22;6268;48.188;17.134;2023-10-19T05:20:15;10.30;99.90
12408;DHT22;6268;48.188;17.134;2023-10-19T05:22:43;10.30;99.90
12408;DHT22;6268;48.188;17.134;2023-10-19T05:25:12;10.30;99.90
12408;DHT22;6268;48.188;17.134;2023-10-19T05:27:40;10.40;99.90
12408;DHT22;6268;48.188;17.134;2023-10-19T05:30:13;10.30;99.90
12408;DHT22;6268;48.188;17.134;2023-10-19T05:32:43;10.30;99.90
12408;DHT22;6268;48.188;17.134;2023-10-19T05:35:13;9.00;99.90
12408;DHT22;6268;48.188;17.134;2023-10-19T05:37:49;10.20;99.90
12408;DHT22;6268;48.188;17.134;2023-10-19T05:40:18;9.90;99.90
12408;DHT22;6268;48.188;17.134;2023-10-19T05:42:47;10.70;99.90
12408;DHT22;6268;48.188;17.134;2023-10-19T05:45:15;10.20;99.90
12408;DHT22;6268;48.188;17.134;2023-10-19T05:47:45;8.90;99.90
12408;DHT22;6268;48.188;17.134;2023-10-19T05:50:14;9.80;99.90
12408;DHT22;6268;48.188;17.134;2023-10-19T05:52:43;12.10;99.90
12408;DHT22;6268;48.188;17.134;2023-10-19T05:55:12;10.60;99.90
12408;DHT22;6268;48.188;17.134;2023-10-19T05:57:41;10.40;99.90
12408;DHT22;6268;48.188;17.134;2023-10-19T06:00:11;10.40;99.90
12408;DHT22;6268;48.188;17.134;2023-10-19T06:02:45;10.30;99.90
12408;DHT22;6268;48.188;17.134;2023-10-19T06:05:16;10.30;99.90
12408;DHT22;6268;48.188;17.134;2023-10-19T06:07:47;10.70;99.90
12408;DHT22;6268;48.188;17.134;2023-10-19T06:10:17;10.20;99.90
12408;DHT22;6268;48.188;17.134;2023-10-19T06:12:49;8.80;99.90
12408;DHT22;6268;48.188;17.134;2023-10-19T06:15:19;10.50;99.90
12408;DHT22;6268;48.188;17.134;2023-10-19T06:17:50;10.40;99.90
12408;DHT22;6268;48.188;17.134;2023-10-19T06:20:20;10.30;99.90
12408;DHT22;6268;48.188;17.134;2023-10-19T06:22:52;10.30;99.90
12408;DHT22;6268;48.188;17.134;2023-10-19T06:25:22;10.30;99.90
12408;DHT22;6268;48.188;17.134;2023-10-19T06:27:52;10.30;99.90
12408;DHT22;6268;48.188;17.134;2023-10-19T06:30:24;10.20;99.90
12408;DHT22;6268;48.188;17.134;2023-10-19T06:32:56;10.10;99.90
12408;DHT22;6268;48.188;17.134;2023-10-19T06:35:29;10.10;99.90
12408;DHT22;6268;48.188;17.134;2023-10-19T06:37:59;10.20;99.90
12408;DHT22;6268;48.188;17.134;2023-10-19T06:40:28;10.10;99.90
12408;DHT22;6268;48.188;17.134;2023-10-19T06:42:57;10.10;99.90
12408;DHT22;6268;48.188;17.134;2023-10-19T06:45:26;10.10;99.90
12408;DHT22;6268;48.188;17.134;2023-10-19T06:47:58;10.20;99.90
12408;DHT22;6268;48.188;17.134;2023-10-19T06:50:27;10.20;99.90
12408;DHT22;6268;48.188;17.134;2023-10-19T06:52:56;10.20;99.90
12408;DHT22;6268;48.188;17.134;2023-10-19T06:55:24;10.40;99.90
12408;DHT22;6268;48.188;17.134;2023-10-19T06:57:55;10.50;99.90
12408;DHT22;6268;48.188;17.134;2023-10-19T07:00:24;10.60;99.90
12408;DHT22;6268;48.188;17.134;2023-10-19T07:02:55;11.00;99.90
12408;DHT22;6268;48.188;17.134;2023-10-19T07:05:25;10.80;99.90
12408;DHT22;6268;48.188;17.134;2023-10-19T07:10:27;9.40;99.90
12408;DHT22;6268;48.188;17.134;2023-10-19T07:12:56;10.70;99.90
12408;DHT22;6268;48.188;17.134;2023-10-19T07:15:25;10.80;99.90
12408;DHT22;6268;48.188;17.134;2023-10-19T07:17:57;10.80;99.90
12408;DHT22;6268;48.188;17.134;2023-10-19T07:20:27;11.40;99.90
12408;DHT22;6268;48.188;17.134;2023-10-19T07:23:00;10.80;99.90
12408;DHT22;6268;48.188;17.134;2023-10-19T07:25:34;10.70;99.90
12408;DHT22;6268;48.188;17.134;2023-10-19T07:28:10;10.60;99.90
12408;DHT22;6268;48.188;17.134;2023-10-19T07:30:40;10.70;99.90
12408;DHT22;6268;48.188;17.134;2023-10-19T07:33:08;11.40;99.90
12408;DHT22;6268;48.188;17.134;2023-10-19T07:35:38;9.50;99.90
12408;DHT22;6268;48.188;17.134;2023-10-19T07:38:09;10.70;99.90
12408;DHT22;6268;48.188;17.134;2023-10-19T07:40:38;11.40;99.90
12408;DHT22;6268;48.188;17.134;2023-10-19T07:43:07;10.50;99.90
12408;DHT22;6268;48.188;17.134;2023-10-19T07:45:35;10.70;99.90
12408;DHT22;6268;48.188;17.134;2023-10-19T07:48:05;11.20;99.90
12408;DHT22;6268;48.188;17.134;2023-10-19T07:50:34;10.50;99.90
12408;DHT22;6268;48.188;17.134;2023-10-19T07:53:05;9.80;99.90
12408;DHT22;6268;48.188;17.134;2023-10-19T07:55:33;10.60;99.90
12408;DHT22;6268;48.188;17.134;2023-10-19T07:58:02;10.60;99.90
12408;DHT22;6268;48.188;17.134;2023-10-19T08:00:31;12.20;99.90
12408;DHT22;6268;48.188;17.134;2023-10-19T08:03:01;10.80;99.90
12408;DHT22;6268;48.188;17.134;2023-10-19T08:05:31;10.80;99.90
12408;DHT22;6268;48.188;17.134;2023-10-19T08:08:01;11.20;99.90
12408;DHT22;6268;48.188;17.134;2023-10-19T08:10:33;11.00;99.90
12408;DHT22;6268;48.188;17.134;2023-10-19T08:13:02;10.80;99.90
12408;DHT22;6268;48.188;17.134;2023-10-19T08:15:31;10.80;99.90
12408;DHT22;6268;48.188;17.134;2023-10-19T08:17:59;10.70;99.90
12408;DHT22;6268;48.188;17.134;2023-10-19T08:20:28;11.10;99.90
12408;DHT22;6268;48.188;17.134;2023-10-19T08:23:00;10.80;99.90
12408;DHT22;6268;48.188;17.134;2023-10-19T08:25:31;10.80;99.90
12408;DHT22;6268;48.188;17.134;2023-10-19T08:28:20;13.00;99.90
12408;DHT22;6268;48.188;17.134;2023-10-19T08:30:49;10.80;99.90
12408;DHT22;6268;48.188;17.134;2023-10-19T08:33:25;10.90;99.90
12408;DHT22;6268;48.188;17.134;2023-10-19T08:35:54;10.90;99.90
12408;DHT22;6268;48.188;17.134;2023-10-19T08:38:25;11.00;99.90
12408;DHT22;6268;48.188;17.134;2023-10-19T08:40:55;11.00;99.90
12408;DHT22;6268;48.188;17.134;2023-10-19T08:43:24;11.00;99.90
12408;DHT22;6268;48.188;17.134;2023-10-19T08:45:53;11.10;99.90
12408;DHT22;6268;48.188;17.134;2023-10-19T08:48:23;11.00;99.90
12408;DHT22;6268;48.188;17.134;2023-10-19T08:50:52;11.10;99.90
12408;DHT22;6268;48.188;17.134;2023-10-19T08:53:24;11.10;99.90
12408;DHT22;6268;48.188;17.134;2023-10-19T08:55:52;11.20;99.90
12408;DHT22;6268;48.188;17.134;2023-10-19T08:58:24;11.10;99.90
12408;DHT22;6268;48.188;17.134;2023-10-19T09:00:54;11.10;99.90
12408;DHT22;6268;48.188;17.134;2023-10-19T09:03:24;11.20;99.90
12408;DHT22;6268;48.188;17.134;2023-10-19T09:05:54;11.20;99.90
12408;DHT22;6268;48.188;17.134;2023-10-19T09:08:24;11.10;99.90
12408;DHT22;6268;48.188;17.134;2023-10-19T09:10:52;11.10;99.90
12408;DHT22;6268;48.188;17.134;2023-10-19T09:13:24;11.10;99.90
12408;DHT22;6268;48.188;17.134;2023-10-19T09:15:52;11.10;99.90
12408;DHT22;6268;48.188;17.134;2023-10-19T09:18:25;11.20;99.90
12408;DHT22;6268;48.188;17.134;2023-10-19T09:20:56;11.30;99.90
12408;DHT22;6268;48.188;17.134;2023-10-19T09:23:35;11.20;99.90
12408;DHT22;6268;48.188;17.134;2023-10-19T09:26:04;11.30;99.90
12408;DHT22;6268;48.188;17.134;2023-10-19T09:28:36;11.40;99.90
12408;DHT22;6268;48.188;17.134;2023-10-19T09:31:06;11.30;99.90
12408;DHT22;6268;48.188;17.134;2023-10-19T09:33:40;11.40;99.90
12408;DHT22;6268;48.188;17.134;2023-10-19T09:36:12;11.40;99.90
12408;DHT22;6268;48.188;17.134;2023-10-19T09:38:45;11.40;99.90
12408;DHT22;6268;48.188;17.134;2023-10-19T09:41:17;11.40;99.90
12408;DHT22;6268;48.188;17.134;2023-10-19T09:43:48;11.40;99.90
12408;DHT22;6268;48.188;17.134;2023-10-19T09:46:22;11.50;99.90
12408;DHT22;6268;48.188;17.134;2023-10-19T09:48:51;11.50;99.90
12408;DHT22;6268;48.188;17.134;2023-10-19T09:51:21;11.50;99.90
12408;DHT22;6268;48.188;17.134;2023-10-19T09:53:59;11.50;99.90
12408;DHT22;6268;48.188;17.134;2023-10-19T09:56:33;11.60;99.90
12408;DHT22;6268;48.188;17.134;2023-10-19T09:59:13;11.60;99.90
12408;DHT22;6268;48.188;17.134;2023-10-19T10:02:06;11.60;99.90
12408;DHT22;6268;48.188;17.134;2023-10-19T10:04:36;11.60;99.90
12408;DHT22;6268;48.188;17.134;2023-10-19T10:07:05;11.60;99.90
12408;DHT22;6268;48.188;17.134;2023-10-19T10:09:36;11.70;99.90
12408;DHT22;6268;48.188;17.134;2023-10-19T10:12:20;11.70;99.90
12408;DHT22;6268;48.188;17.134;2023-10-19T10:14:58;11.90;99.90
12408;DHT22;6268;48.188;17.134;2023-10-19T10:17:29;11.90;99.90
12408;DHT22;6268;48.188;17.134;2023-10-19T10:20:29;11.80;99.90
12408;DHT22;6268;48.188;17.134;2023-10-19T10:23:21;11.90;99.90
12408;DHT22;6268;48.188;17.134;2023-10-19T10:25:52;11.90;99.90
12408;DHT22;6268;48.188;17.134;2023-10-19T10:28:21;11.80;99.90
12408;DHT22;6268;48.188;17.134;2023-10-19T10:31:14;11.90;99.90
12408;DHT22;6268;48.188;17.134;2023-10-19T10:33:45;11.90;99.90
12408;DHT22;6268;48.188;17.134;2023-10-19T10:36:15;12.00;99.90
12408;DHT22;6268;48.188;17.134;2023-10-19T10:38:46;12.10;99.90
12408;DHT22;6268;48.188;17.134;2023-10-19T10:41:21;12.20;99.90
12408;DHT22;6268;48.188;17.134;2023-10-19T10:43:53;12.20;99.90
12408;DHT22;6268;48.188;17.134;2023-10-19T10:46:24;12.30;99.90
12408;DHT22;6268;48.188;17.134;2023-10-19T10:48:54;12.20;99.90
12408;DHT22;6268;48.188;17.134;2023-10-19T10:51:26;12.40;99.90
12408;DHT22;6268;48.188;17.134;2023-10-19T10:53:57;12.40;99.90
12408;DHT22;6268;48.188;17.134;2023-10-19T10:56:26;12.40;99.90
12408;DHT22;6268;48.188;17.134;2023-10-19T10:58:55;12.40;99.90
12408;DHT22;6268;48.188;17.134;2023-10-19T11:01:32;12.50;99.90
12408;DHT22;6268;48.188;17.134;2023-10-19T11:04:08;12.60;99.90
12408;DHT22;6268;48.188;17.134;2023-10-19T11:06:48;12.70;99.90
12408;DHT22;6268;48.188;17.134;2023-10-19T11:09:17;12.90;99.90
12408;DHT22;6268;48.188;17.134;2023-10-19T11:11:46;13.60;99.90
12408;DHT22;6268;48.188;17.134;2023-10-19T11:14:16;13.60;99.90
12408;DHT22;6268;48.188;17.134;2023-10-19T11:16:46;13.70;99.90
12408;DHT22;6268;48.188;17.134;2023-10-19T11:19:15;13.80;99.90
12408;DHT22;6268;48.188;17.134;2023-10-19T11:21:53;14.00;99.90
12408;DHT22;6268;48.188;17.134;2023-10-19T11:24:27;14.10;99.90
12408;DHT22;6268;48.188;17.134;2023-10-19T11:26:59;14.30;99.90
12408;DHT22;6268;48.188;17.134;2023-10-19T11:29:28;14.50;99.90
12408;DHT22;6268;48.188;17.134;2023-10-19T11:32:01;14.30;99.90
12408;DHT22;6268;48.188;17.134;2023-10-19T11:34:29;14.40;99.90
12408;DHT22;6268;48.188;17.134;2023-10-19T11:37:02;14.30;99.90
12408;DHT22;6268;48.188;17.134;2023-10-19T11:39:32;14.10;99.90
12408;DHT22;6268;48.188;17.134;2023-10-19T11:42:01;14.10;99.90
12408;DHT22;6268;48.188;17.134;2023-10-19T11:44:29;14.10;99.90
12408;DHT22;6268;48.188;17.134;2023-10-19T11:46:58;14.00;99.90
12408;DHT22;6268;48.188;17.134;2023-10-19T11:49:29;13.80;99.90
12408;DHT22;6268;48.188;17.134;2023-10-19T11:51:58;13.80;99.90
12408;DHT22;6268;48.188;17.134;2023-10-19T11:54:26;13.80;99.90
12408;DHT22;6268;48.188;17.134;2023-10-19T11:56:54;13.90;99.90
12408;DHT22;6268;48.188;17.134;2023-10-19T11:59:23;14.00;99.90
12408;DHT22;6268;48.188;17.134;2023-10-19T12:01:53;14.20;99.90
12408;DHT22;6268;48.188;17.134;2023-10-19T12:04:22;14.20;99.90
12408;DHT22;6268;48.188;17.134;2023-10-19T12:06:52;14.30;99.90
12408;DHT22;6268;48.188;17.134;2023-10-19T12:09:20;14.40;99.90
12408;DHT22;6268;48.188;17.134;2023-10-19T12:11:51;14.40;99.90
12408;DHT22;6268;48.188;17.134;2023-10-19T12:14:22;14.20;99.90
12408;DHT22;6268;48.188;17.134;2023-10-19T12:16:50;14.20;99.90
12408;DHT22;6268;48.188;17.134;2023-10-19T12:19:19;14.10;99.90
12408;DHT22;6268;48.188;17.134;2023-10-19T12:21:47;14.20;99.90
12408;DHT22;6268;48.188;17.134;2023-10-19T12:24:18;14.00;99.90
12408;DHT22;6268;48.188;17.134;2023-10-19T12:26:48;13.90;99.90
12408;DHT22;6268;48.188;17.134;2023-10-19T12:29:17;13.90;99.90
12408;DHT22;6268;48.188;17.134;2023-10-19T12:31:48;13.90;99.90
12408;DHT22;6268;48.188;17.134;2023-10-19T12:34:17;13.90;99.90
12408;DHT22;6268;48.188;17.134;2023-10-19T12:36:45;13.90;99.90
12408;DHT22;6268;48.188;17.134;2023-10-19T12:39:18;12.20;99.90
12408;DHT22;6268;48.188;17.134;2023-10-19T12:42:00;13.40;99.90
12408;DHT22;6268;48.188;17.134;2023-10-19T12:44:30;14.10;99.90
12408;DHT22;6268;48.188;17.134;2023-10-19T12:49:37;13.20;99.90
12408;DHT22;6268;48.188;17.134;2023-10-19T12:52:06;13.40;99.90
12408;DHT22;6268;48.188;17.134;2023-10-19T12:54:36;14.30;99.90
12408;DHT22;6268;48.188;17.134;2023-10-19T12:57:06;13.80;99.90
12408;DHT22;6268;48.188;17.134;2023-10-19T12:59:36;13.10;99.90
12408;DHT22;6268;48.188;17.134;2023-10-19T13:02:05;14.50;99.90
12408;DHT22;6268;48.188;17.134;2023-10-19T13:04:36;14.20;99.90
12408;DHT22;6268;48.188;17.134;2023-10-19T13:07:05;14.20;99.90
12408;DHT22;6268;48.188;17.134;2023-10-19T13:09:35;14.10;99.90
12408;DHT22;6268;48.188;17.134;2023-10-19T13:12:04;14.00;99.90
12408;DHT22;6268;48.188;17.134;2023-10-19T13:14:35;14.00;99.90
12408;DHT22;6268;48.188;17.134;2023-10-19T13:17:03;14.00;99.90
12408;DHT22;6268;48.188;17.134;2023-10-19T13:19:32;14.10;99.90
12408;DHT22;6268;48.188;17.134;2023-10-19T13:22:03;14.20;99.90
12408;DHT22;6268;48.188;17.134;2023-10-19T13:24:36;14.30;99.90
12408;DHT22;6268;48.188;17.134;2023-10-19T13:27:09;14.30;99.90
12408;DHT22;6268;48.188;17.134;2023-10-19T13:29:37;14.30;99.90
12408;DHT22;6268;48.188;17.134;2023-10-19T13:32:09;14.20;99.90
12408;DHT22;6268;48.188;17.134;2023-10-19T13:34:38;14.20;99.90
12408;DHT22;6268;48.188;17.134;2023-10-19T13:37:08;14.30;99.90
12408;DHT22;6268;48.188;17.134;2023-10-19T13:39:40;14.20;99.90
12408;DHT22;6268;48.188;17.134;2023-10-19T13:42:08;14.10;99.90
12408;DHT22;6268;48.188;17.134;2023-10-19T13:44:37;14.20;99.90
12408;DHT22;6268;48.188;17.134;2023-10-19T13:47:06;14.10;99.90
12408;DHT22;6268;48.188;17.134;2023-10-19T13:49:36;14.10;99.90
12408;DHT22;6268;48.188;17.134;2023-10-19T13:52:05;14.10;99.90
12408;DHT22;6268;48.188;17.134;2023-10-19T13:54:36;14.20;99.90
12408;DHT22;6268;48.188;17.134;2023-10-19T13:57:06;14.20;99.90
12408;DHT22;6268;48.188;17.134;2023-10-19T13:59:34;14.20;99.90
12408;DHT22;6268;48.188;17.134;2023-10-19T14:02:02;14.20;99.90
12408;DHT22;6268;48.188;17.134;2023-10-19T14:04:31;14.10;99.90
12408;DHT22;6268;48.188;17.134;2023-10-19T14:07:00;14.20;99.90
12408;DHT22;6268;48.188;17.134;2023-10-19T14:09:28;14.20;99.90
12408;DHT22;6268;48.188;17.134;2023-10-19T14:11:58;14.30;99.90
12408;DHT22;6268;48.188;17.134;2023-10-19T14:14:31;14.30;99.90
12408;DHT22;6268;48.188;17.134;2023-10-19T14:16:59;14.40;99.90
12408;DHT22;6268;48.188;17.134;2023-10-19T14:19:28;14.40;99.90
12408;DHT22;6268;48.188;17.134;2023-10-19T14:22:00;14.40;99.90
12408;DHT22;6268;48.188;17.134;2023-10-19T14:24:28;14.30;99.90
12408;DHT22;6268;48.188;17.134;2023-10-19T14:26:57;14.30;99.90
12408;DHT22;6268;48.188;17.134;2023-10-19T14:29:26;14.20;99.90
12408;DHT22;6268;48.188;17.134;2023-10-19T14:31:56;14.20;99.90
12408;DHT22;6268;48.188;17.134;2023-10-19T14:34:25;14.10;99.90
12408;DHT22;6268;48.188;17.134;2023-10-19T14:36:54;14.10;99.90
12408;DHT22;6268;48.188;17.134;2023-10-19T14:39:23;14.10;99.90
12408;DHT22;6268;48.188;17.134;2023-10-19T14:41:51;14.20;99.90
12408;DHT22;6268;48.188;17.134;2023-10-19T14:44:20;14.30;99.90
12408;DHT22;6268;48.188;17.134;2023-10-19T14:46:49;14.30;99.90
12408;DHT22;6268;48.188;17.134;2023-10-19T14:49:20;14.30;99.90
12408;DHT22;6268;48.188;17.134;2023-10-19T14:51:48;14.30;99.90
12408;DHT22;6268;48.188;17.134;2023-10-19T14:54:17;14.30;99.90
12408;DHT22;6268;48.188;17.134;2023-10-19T14:56:49;14.30;99.90
12408;DHT22;6268;48.188;17.134;2023-10-19T14:59:17;14.20;99.90
12408;DHT22;6268;48.188;17.134;2023-10-19T15:01:46;14.20;99.90
12408;DHT22;6268;48.188;17.134;2023-10-19T15:04:15;14.20;99.90
12408;DHT22;6268;48.188;17.134;2023-10-19T15:06:45;14.20;99.90
12408;DHT22;6268;48.188;17.134;2023-10-19T15:09:13;14.20;99.90
12408;DHT22;6268;48.188;17.134;2023-10-19T15:11:47;14.20;99.90
12408;DHT22;6268;48.188;17.134;2023-10-19T15:14:16;14.10;99.90
12408;DHT22;6268;48.188;17.134;2023-10-19T15:16:44;14.00;99.90
12408;DHT22;6268;48.188;17.134;2023-10-19T15:19:13;14.00;99.90
12408;DHT22;6268;48.188;17.134;2023-10-19T15:21:47;14.00;99.90
12408;DHT22;6268;48.188;17.134;2023-10-19T15:24:15;14.00;99.90
12408;DHT22;6268;48.188;17.134;2023-10-19T15:26:45;14.00;99.90
12408;DHT22;6268;48.188;17.134;2023-10-19T15:29:14;13.90;99.90
12408;DHT22;6268;48.188;17.134;2023-10-19T15:31:42;13.90;99.90
12408;DHT22;6268;48.188;17.134;2023-10-19T15:34:11;13.90;99.90
12408;DHT22;6268;48.188;17.134;2023-10-19T15:36:42;13.80;99.90
12408;DHT22;6268;48.188;17.134;2023-10-19T15:39:12;13.80;99.90
12408;DHT22;6268;48.188;17.134;2023-10-19T15:41:40;13.80;99.90
12408;DHT22;6268;48.188;17.134;2023-10-19T15:44:09;13.70;99.90
12408;DHT22;6268;48.188;17.134;2023-10-19T15:46:38;13.70;99.90
12408;DHT22;6268;48.188;17.134;2023-10-19T15:49:09;13.70;99.90
12408;DHT22;6268;48.188;17.134;2023-10-19T15:51:42;13.60;99.90
12408;DHT22;6268;48.188;17.134;2023-10-19T15:54:12;13.60;99.90
12408;DHT22;6268;48.188;17.134;2023-10-19T15:56:41;13.60;99.90
12408;DHT22;6268;48.188;17.134;2023-10-19T15:59:09;13.50;99.90
12408;DHT22;6268;48.188;17.134;2023-10-19T16:01:38;13.50;99.90
12408;DHT22;6268;48.188;17.134;2023-10-19T16:04:07;13.50;99.90
12408;DHT22;6268;48.188;17.134;2023-10-19T16:06:36;13.40;99.90
12408;DHT22;6268;48.188;17.134;2023-10-19T16:09:05;13.50;99.90
12408;DHT22;6268;48.188;17.134;2023-10-19T16:11:36;13.40;99.90
12408;DHT22;6268;48.188;17.134;2023-10-19T16:14:04;13.30;99.90
12408;DHT22;6268;48.188;17.134;2023-10-19T16:16:33;13.30;99.90